createdAt,value
2018-08-14T00:00:32.519Z,94917.48
2018-08-14T00:03:02.749Z,94917.23
2018-08-14T00:05:31.626Z,94921.47
2018-08-14T00:08:00.512Z,94916.19
2018-08-14T00:10:29.451Z,94909.34
2018-08-14T00:12:58.962Z,94914.33
2018-08-14T00:15:28.346Z,94912.66
2018-08-14T00:17:57.034Z,94915.15
2018-08-14T00:20:25.934Z,94911.36
2018-08-14T00:22:55.031Z,94920.55
2018-08-14T00:25:23.908Z,94917.11
2018-08-14T00:27:53.874Z,94921.41
2018-08-14T00:30:28.092Z,94925.58
2018-08-14T00:32:58.103Z,94927.44
2018-08-14T00:35:27.079Z,94916.18
2018-08-14T00:37:55.836Z,94927.31
2018-08-14T00:40:25.279Z,94920.35
2018-08-14T00:42:57.026Z,94922.38
2018-08-14T00:45:25.963Z,94926.63
2018-08-14T00:47:54.644Z,94925.39
2018-08-14T00:50:23.524Z,94917.97
2018-08-14T00:52:52.331Z,94917.63
2018-08-14T00:55:22.297Z,94915.35
2018-08-14T00:57:51.906Z,94916.27
2018-08-14T01:00:25.239Z,94911.69
2018-08-14T01:02:54.919Z,94921.70
2018-08-14T01:05:23.664Z,94916.02
2018-08-14T01:07:52.466Z,94918.80
2018-08-14T01:10:21.369Z,94917.09
2018-08-14T01:12:53.654Z,94923.19
2018-08-14T01:15:24.111Z,94918.27
2018-08-14T01:17:53.976Z,94915.83
2018-08-14T01:20:23.953Z,94904.48
2018-08-14T01:22:52.867Z,94907.83
2018-08-14T01:25:21.719Z,94903.19
2018-08-14T01:27:51.534Z,94910.14
2018-08-14T01:30:25.942Z,94911.68
2018-08-14T01:32:54.912Z,94910.64
2018-08-14T01:35:23.695Z,94903.91
2018-08-14T01:37:52.503Z,94906.12
2018-08-14T01:40:21.439Z,94897.72
2018-08-14T01:42:50.218Z,94902.48
2018-08-14T01:45:19.390Z,94906.38
2018-08-14T01:47:48.306Z,94907.41
2018-08-14T01:50:22.124Z,94906.41
2018-08-14T01:52:50.862Z,94900.84
2018-08-14T01:55:20.698Z,94905.34
2018-08-14T01:57:50.386Z,94904.59
2018-08-14T02:00:20.496Z,94911.91
2018-08-14T02:02:49.535Z,94911.69
2018-08-14T02:05:18.294Z,94911.43
2018-08-14T02:07:47.012Z,94916.00
2018-08-14T02:10:17.331Z,94913.78
2018-08-14T02:12:46.142Z,94914.69
2018-08-14T02:15:16.555Z,94911.20
2018-08-14T02:17:45.508Z,94911.70
2018-08-14T02:20:22.696Z,94907.81
2018-08-14T02:22:53.119Z,94909.34
2018-08-14T02:25:22.206Z,94908.98
2018-08-14T02:27:51.468Z,94914.69
2018-08-14T02:30:21.016Z,94915.72
2018-08-14T02:32:50.023Z,94910.08
2018-08-14T02:35:20.063Z,94919.03
2018-08-14T02:37:49.148Z,94909.80
2018-08-14T02:40:20.262Z,94907.13
2018-08-14T02:42:49.900Z,94914.61
2018-08-14T02:45:18.896Z,94923.56
2018-08-14T02:47:47.812Z,94922.94
2018-08-14T02:50:17.188Z,94913.63
2018-08-14T02:52:45.994Z,94916.41
2018-08-14T02:55:16.962Z,94917.95
2018-08-14T02:57:46.039Z,94918.75
2018-08-14T03:00:18.706Z,94924.30
2018-08-14T03:02:47.718Z,94920.07
2018-08-14T03:05:16.485Z,94917.80
2018-08-14T03:07:45.381Z,94915.52
2018-08-14T03:10:14.490Z,94907.19
2018-08-14T03:12:43.971Z,94910.95
2018-08-14T03:15:15.589Z,94911.13
2018-08-14T03:17:44.490Z,94911.64
2018-08-14T03:20:13.124Z,94907.77
2018-08-14T03:22:42.323Z,94909.43
2018-08-14T03:25:11.070Z,94917.37
2018-08-14T03:27:39.798Z,94915.23
2018-08-14T03:30:10.008Z,94925.07
2018-08-14T03:32:38.806Z,94922.05
2018-08-14T03:35:09.762Z,94917.38
2018-08-14T03:37:38.959Z,94922.91
2018-08-14T03:40:15.338Z,94919.77
2018-08-14T03:42:45.243Z,94921.38
2018-08-14T03:45:13.914Z,94917.50
2018-08-14T03:47:43.097Z,94919.88
2018-08-14T03:50:12.839Z,94912.95
2018-08-14T03:52:42.107Z,94918.80
2018-08-14T03:55:13.429Z,94930.64
2018-08-14T03:57:42.458Z,94934.86
2018-08-14T04:00:13.146Z,94918.30
2018-08-14T04:02:41.866Z,94913.34
2018-08-14T04:05:10.978Z,94921.93
2018-08-14T04:07:39.838Z,94925.27
2018-08-14T04:10:09.582Z,94923.86
2018-08-14T04:12:38.693Z,94926.95
2018-08-14T04:15:08.735Z,94932.05
2018-08-14T04:17:37.492Z,94929.17
2018-08-14T04:20:07.692Z,94929.38
2018-08-14T04:22:36.740Z,94928.88
2018-08-14T04:25:05.911Z,94924.95
2018-08-14T04:27:35.031Z,94926.28
2018-08-14T04:30:04.553Z,94928.75
2018-08-14T04:32:33.430Z,94928.27
2018-08-14T04:35:02.310Z,94930.26
2018-08-14T04:37:31.350Z,94925.20
2018-08-14T04:40:00.382Z,94929.17
2018-08-14T04:42:29.167Z,94920.80
2018-08-14T04:44:58.077Z,94930.80
2018-08-14T04:47:26.818Z,94926.51
2018-08-14T04:49:55.763Z,94930.75
2018-08-14T04:52:25.075Z,94935.47
2018-08-14T04:54:53.774Z,94939.50
2018-08-14T04:57:22.534Z,94937.77
2018-08-14T04:59:51.430Z,94938.48
2018-08-14T05:02:20.212Z,94938.76
2018-08-14T05:04:49.210Z,94939.27
2018-08-14T05:07:18.323Z,94941.16
2018-08-14T05:09:47.246Z,94940.19
2018-08-14T05:12:16.371Z,94938.30
2018-08-14T05:14:45.462Z,94940.44
2018-08-14T05:17:14.296Z,94943.23
2018-08-14T05:19:43.127Z,94956.92
2018-08-14T05:22:12.347Z,94954.02
2018-08-14T05:24:41.020Z,94954.09
2018-08-14T05:27:09.861Z,94951.17
2018-08-14T05:29:38.998Z,94937.97
2018-08-14T05:32:07.831Z,94946.35
2018-08-14T05:34:36.591Z,94940.17
2018-08-14T05:37:05.784Z,94947.86
2018-08-14T05:39:34.476Z,94949.05
2018-08-14T05:42:03.295Z,94943.70
2018-08-14T05:44:32.261Z,94953.17
2018-08-14T05:47:01.129Z,94950.08
2018-08-14T05:49:30.326Z,94949.34
2018-08-14T05:51:59.731Z,94948.30
2018-08-14T05:54:28.763Z,94949.93
2018-08-14T05:56:57.659Z,94947.72
2018-08-14T05:59:26.834Z,94946.52
2018-08-14T06:01:55.615Z,94946.42
2018-08-14T06:04:24.794Z,94939.24
2018-08-14T06:06:54.299Z,94944.19
2018-08-14T06:09:23.407Z,94949.92
2018-08-14T06:11:52.499Z,94948.74
2018-08-14T06:14:21.955Z,94946.95
2018-08-14T06:16:51.097Z,94945.14
2018-08-14T06:19:20.568Z,94956.66
2018-08-14T06:21:50.338Z,94949.22
2018-08-14T06:24:19.316Z,94946.33
2018-08-14T06:26:49.455Z,94946.98
2018-08-14T06:29:19.319Z,94943.91
2018-08-14T06:31:48.867Z,94941.06
2018-08-14T06:34:17.828Z,94946.67
2018-08-14T06:36:47.384Z,94944.52
2018-08-14T06:39:16.468Z,94931.98
2018-08-14T06:41:45.448Z,94937.11
2018-08-14T06:44:15.574Z,94939.96
2018-08-14T06:46:44.544Z,94939.83
2018-08-14T06:49:13.370Z,94940.11
2018-08-14T06:51:43.000Z,94940.94
2018-08-14T06:54:12.359Z,94944.32
2018-08-14T06:56:41.572Z,94942.02
2018-08-14T06:59:11.081Z,94940.55
2018-08-14T07:01:40.262Z,94944.78
2018-08-14T07:04:09.887Z,94944.72
2018-08-14T07:06:39.221Z,94941.45
2018-08-14T07:09:09.541Z,94936.87
2018-08-14T07:11:38.644Z,94933.37
2018-08-14T07:14:10.167Z,94932.36
2018-08-14T07:16:40.069Z,94937.59
2018-08-14T07:19:10.450Z,94932.28
2018-08-14T07:21:39.917Z,94932.97
2018-08-14T07:24:09.856Z,94931.61
2018-08-14T07:26:39.132Z,94926.47
2018-08-14T07:29:08.515Z,94929.50
2018-08-14T07:31:37.570Z,94929.47
2018-08-14T07:34:06.939Z,94933.97
2018-08-14T07:36:36.500Z,94935.86
2018-08-14T07:39:08.022Z,94931.55
2018-08-14T07:41:38.240Z,94933.10
2018-08-14T07:44:07.012Z,94928.48
2018-08-14T07:46:36.599Z,94923.44
2018-08-14T07:49:06.472Z,94926.08
2018-08-14T07:51:36.900Z,94924.39
2018-08-14T07:54:05.850Z,94922.31
2018-08-14T07:56:34.902Z,94918.98
2018-08-14T07:59:03.730Z,94920.08
2018-08-14T08:01:32.741Z,94919.10
2018-08-14T08:04:01.920Z,94920.34
2018-08-14T08:06:31.041Z,94919.61
2018-08-14T08:08:59.940Z,94915.53
2018-08-14T08:11:29.039Z,94929.31
2018-08-14T08:13:58.115Z,94927.61
2018-08-14T08:16:27.318Z,94922.92
2018-08-14T08:18:57.171Z,94921.20
2018-08-14T08:21:26.035Z,94920.41
2018-08-14T08:23:54.986Z,94920.35
2018-08-14T08:26:24.545Z,94912.77
2018-08-14T08:28:53.407Z,94906.77
2018-08-14T08:31:22.463Z,94907.94
2018-08-14T08:33:51.611Z,94913.92
2018-08-14T08:36:20.811Z,94909.87
2018-08-14T08:38:49.887Z,94912.49
2018-08-14T08:41:19.747Z,94909.48
2018-08-14T08:43:48.812Z,94905.91
2018-08-14T08:46:17.579Z,94900.74
2018-08-14T08:48:47.021Z,94900.30
2018-08-14T08:51:16.922Z,94900.98
2018-08-14T08:53:46.534Z,94897.78
2018-08-14T08:56:15.504Z,94888.79
2018-08-14T08:58:45.568Z,94890.69
2018-08-14T09:01:14.924Z,94881.36
2018-08-14T09:03:43.785Z,94885.84
2018-08-14T09:06:13.227Z,94883.55
2018-08-14T09:08:42.238Z,94882.78
2018-08-14T09:11:11.240Z,94878.84
2018-08-14T09:13:40.850Z,94877.57
2018-08-14T09:16:10.047Z,94876.20
2018-08-14T09:18:39.164Z,94871.42
2018-08-14T09:21:08.756Z,94867.33
2018-08-14T09:23:37.749Z,94872.55
2018-08-14T09:26:06.844Z,94858.76
2018-08-14T09:28:36.329Z,94858.06
2018-08-14T09:31:05.253Z,94855.16
2018-08-14T09:33:34.338Z,94852.42
2018-08-14T09:36:03.359Z,94848.89
2018-08-14T09:38:32.510Z,94847.25
2018-08-14T09:41:01.719Z,94841.89
2018-08-14T09:43:31.364Z,94844.81
2018-08-14T09:46:00.441Z,94850.30
2018-08-14T09:48:29.642Z,94849.27
2018-08-14T09:50:59.870Z,94840.75
2018-08-14T09:53:30.127Z,94838.81
2018-08-14T09:55:59.387Z,94835.73
2018-08-14T09:58:28.701Z,94834.25
2018-08-14T10:01:02.696Z,94829.33
2018-08-14T10:03:32.955Z,94827.84
2018-08-14T10:06:07.129Z,94804.40
2018-08-14T10:08:36.473Z,94816.73
2018-08-14T10:11:05.642Z,94817.70
2018-08-14T10:13:35.043Z,94804.25
2018-08-14T10:16:04.976Z,94800.55
2018-08-14T10:18:34.833Z,94814.88
2018-08-14T10:21:03.879Z,94817.45
2018-08-14T10:23:33.202Z,94817.36
2018-08-14T10:26:01.936Z,94779.92
2018-08-14T10:28:31.201Z,94794.40
2018-08-14T10:31:00.631Z,94796.90
2018-08-14T10:33:30.195Z,94794.44
2018-08-14T10:35:59.336Z,94784.32
2018-08-14T10:38:29.006Z,94793.73
2018-08-14T10:40:59.174Z,94786.97
2018-08-14T10:43:28.940Z,94780.82
2018-08-14T10:45:57.902Z,94784.79
2018-08-14T10:48:27.318Z,94776.64
2018-08-14T10:50:56.483Z,94776.95
2018-08-14T10:53:26.018Z,94779.09
2018-08-14T10:55:55.112Z,94776.92
2018-08-14T10:58:24.230Z,94779.25
2018-08-14T11:00:54.355Z,94774.12
2018-08-14T11:03:24.392Z,94770.61
2018-08-14T11:05:54.235Z,94775.80
2018-08-14T11:08:23.954Z,94777.84
2018-08-14T11:10:58.038Z,94763.44
2018-08-14T11:13:27.293Z,94760.13
2018-08-14T11:15:56.266Z,94764.44
2018-08-14T11:18:25.079Z,94765.00
2018-08-14T11:20:54.443Z,94761.83
2018-08-14T11:23:23.248Z,94756.03
2018-08-14T11:25:52.098Z,94762.34
2018-08-14T11:28:20.908Z,94760.41
2018-08-14T11:30:50.036Z,94758.86
2018-08-14T11:33:19.757Z,94762.52
2018-08-14T11:35:54.562Z,94761.45
2018-08-14T11:38:23.769Z,94757.34
2018-08-14T11:40:52.824Z,94758.48
2018-08-14T11:43:22.814Z,94754.90
2018-08-14T11:45:51.816Z,94754.09
2018-08-14T11:48:20.872Z,94750.72
2018-08-14T11:50:50.427Z,94751.92
2018-08-14T11:53:19.878Z,94749.27
2018-08-14T11:55:48.887Z,94742.52
2018-08-14T11:58:18.931Z,94737.10
2018-08-14T12:00:47.716Z,94730.86
2018-08-14T12:03:16.717Z,94727.79
2018-08-14T12:05:46.327Z,94734.84
2018-08-14T12:08:15.309Z,94720.89
2018-08-14T12:10:44.621Z,94725.55
2018-08-14T12:13:13.656Z,94720.95
2018-08-14T12:15:42.530Z,94739.53
2018-08-14T12:18:11.497Z,94727.19
2018-08-14T12:20:40.918Z,94720.98
2018-08-14T12:23:09.797Z,94718.95
2018-08-14T12:25:38.779Z,94725.94
2018-08-14T12:28:09.747Z,94720.88
2018-08-14T12:30:38.499Z,94712.55
2018-08-14T12:33:08.007Z,94714.98
2018-08-14T12:35:37.235Z,94720.97
2018-08-14T12:38:06.414Z,94715.27
2018-08-14T12:40:35.519Z,94716.61
2018-08-14T12:43:06.803Z,94719.90
2018-08-14T12:45:36.946Z,94715.34
2018-08-14T12:48:06.583Z,94686.08
2018-08-14T12:50:35.803Z,94706.72
2018-08-14T12:53:04.734Z,94702.55
2018-08-14T12:55:34.017Z,94693.92
2018-08-14T12:58:03.426Z,94696.58
2018-08-14T13:00:33.167Z,94696.16
2018-08-14T13:03:02.250Z,94705.63
2018-08-14T13:05:32.213Z,94700.48
2018-08-14T13:08:00.877Z,94699.20
2018-08-14T13:10:29.934Z,94694.23
2018-08-14T13:12:59.328Z,94692.33
2018-08-14T13:15:28.400Z,94700.27
2018-08-14T13:18:08.208Z,94703.06
2018-08-14T13:20:37.288Z,94694.88
2018-08-14T13:23:08.503Z,94707.42
2018-08-14T13:25:37.929Z,94703.68
2018-08-14T13:28:07.494Z,94692.86
2018-08-14T13:30:36.500Z,94697.11
2018-08-14T13:33:06.310Z,94693.38
2018-08-14T13:35:36.282Z,94694.64
2018-08-14T13:38:05.835Z,94692.52
2018-08-14T13:40:34.727Z,94687.87
2018-08-14T13:43:04.031Z,94687.66
2018-08-14T13:45:33.097Z,94689.08
2018-08-14T13:48:02.752Z,94688.44
2018-08-14T13:50:31.848Z,94685.61
2018-08-14T13:53:00.983Z,94689.27
2018-08-14T13:55:30.205Z,94693.54
2018-08-14T13:58:03.019Z,94680.08
2018-08-14T14:00:32.804Z,94676.13
2018-08-14T14:03:01.778Z,94671.52
2018-08-14T14:05:32.646Z,94665.50
2018-08-14T14:08:02.559Z,94669.44
2018-08-14T14:10:31.645Z,94668.80
2018-08-14T14:13:00.973Z,94669.40
2018-08-14T14:15:30.380Z,94677.59
2018-08-14T14:17:59.477Z,94679.58
2018-08-14T14:20:30.411Z,94683.45
2018-08-14T14:23:00.128Z,94685.09
2018-08-14T14:25:29.135Z,94696.03
2018-08-14T14:27:59.046Z,94696.41
2018-08-14T14:30:28.691Z,94699.82
2018-08-14T14:32:58.559Z,94706.98
2018-08-14T14:35:27.720Z,94701.21
2018-08-14T14:37:57.190Z,94711.20
2018-08-14T14:40:28.761Z,94705.74
2018-08-14T14:43:00.524Z,94707.25
2018-08-14T14:45:29.888Z,94712.05
2018-08-14T14:47:59.579Z,94710.08
2018-08-14T14:50:28.684Z,94706.13
2018-08-14T14:52:57.994Z,94709.66
2018-08-14T14:55:27.268Z,94707.80
2018-08-14T14:57:56.494Z,94708.16
2018-08-14T15:00:26.992Z,94709.11
2018-08-14T15:02:57.338Z,94706.38
2018-08-14T15:05:26.550Z,94699.33
2018-08-14T15:07:56.638Z,94702.72
2018-08-14T15:10:26.302Z,94707.38
2018-08-14T15:12:55.422Z,94698.91
2018-08-14T15:15:24.501Z,94701.30
2018-08-14T15:17:53.444Z,94705.23
2018-08-14T15:20:24.727Z,94702.72
2018-08-14T15:22:54.992Z,94699.23
2018-08-14T15:25:25.374Z,94698.67
2018-08-14T15:29:01.175Z,94696.59
2018-08-14T15:31:30.281Z,94695.24
2018-08-14T15:33:59.634Z,94695.24
2018-08-14T15:36:30.266Z,94696.16
2018-08-14T15:39:00.667Z,94686.64
2018-08-14T15:41:29.990Z,94688.70
2018-08-14T15:43:59.559Z,94682.01
2018-08-14T15:46:28.393Z,94684.92
2018-08-14T15:48:57.793Z,94679.94
2018-08-14T15:51:27.317Z,94681.92
2018-08-14T15:53:56.700Z,94680.42
2018-08-14T15:56:25.799Z,94684.55
2018-08-14T15:58:55.520Z,94676.04
2018-08-14T16:01:24.498Z,94672.80
2018-08-14T16:03:53.463Z,94666.27
2018-08-14T16:06:23.024Z,94665.44
2018-08-14T16:08:52.310Z,94666.56
2018-08-14T16:11:21.409Z,94665.77
2018-08-14T16:13:50.839Z,94675.31
2018-08-14T16:16:20.113Z,94666.19
2018-08-14T16:18:49.006Z,94668.22
2018-08-14T16:21:18.754Z,94671.91
2018-08-14T16:23:48.650Z,94678.81
2018-08-14T16:26:18.640Z,94682.95
2018-08-14T16:28:48.561Z,94670.28
2018-08-14T16:31:17.763Z,94673.51
2018-08-14T16:33:46.762Z,94677.14
2018-08-14T16:36:16.287Z,94681.70
2018-08-14T16:38:46.000Z,94678.80
2018-08-14T16:41:14.881Z,94683.59
2018-08-14T16:43:44.287Z,94678.09
2018-08-14T16:46:14.527Z,94681.50
2018-08-14T16:48:43.182Z,94688.69
2018-08-14T16:51:13.214Z,94684.94
2018-08-14T16:53:42.867Z,94679.97
2018-08-14T16:56:12.020Z,94682.53
2018-08-14T16:58:41.620Z,94685.49
2018-08-14T17:01:11.040Z,94687.09
2018-08-14T17:03:40.126Z,94681.52
2018-08-14T17:06:09.978Z,94678.01
2018-08-14T17:08:39.341Z,94686.73
2018-08-14T17:11:08.511Z,94686.38
2018-08-14T17:13:37.403Z,94688.19
2018-08-14T17:16:06.519Z,94683.42
2018-08-14T17:18:35.791Z,94689.94
2018-08-14T17:21:03.697Z,94696.52
2018-08-14T17:23:32.719Z,94697.62
2018-08-14T17:26:02.438Z,94695.56
2018-08-14T17:28:31.815Z,94710.10
2018-08-14T17:31:00.912Z,94708.90
2018-08-14T17:33:29.791Z,94712.56
2018-08-14T17:35:59.786Z,94712.46
2018-08-14T17:38:28.604Z,94714.72
2018-08-14T17:40:58.859Z,94708.51
2018-08-14T17:43:28.469Z,94703.47
2018-08-14T17:45:58.335Z,94707.09
2018-08-14T17:48:27.414Z,94704.64
2018-08-14T17:50:56.884Z,94708.44
2018-08-14T17:53:25.943Z,94705.53
2018-08-14T17:55:55.002Z,94707.98
2018-08-14T17:58:25.099Z,94711.72
2018-08-14T18:00:53.951Z,94711.94
2018-08-14T18:03:23.045Z,94709.98
2018-08-14T18:05:52.581Z,94720.80
2018-08-14T18:08:21.758Z,94726.22
2018-08-14T18:10:50.960Z,94732.06
2018-08-14T18:13:20.278Z,94734.77
2018-08-14T18:15:49.250Z,94734.12
2018-08-14T18:18:18.038Z,94735.42
2018-08-14T18:20:47.099Z,94737.87
2018-08-14T18:23:15.958Z,94742.64
2018-08-14T18:25:44.719Z,94747.23
2018-08-14T18:28:13.958Z,94749.87
2018-08-14T18:30:44.111Z,94753.72
2018-08-14T18:33:12.957Z,94756.16
2018-08-14T18:35:42.292Z,94754.29
2018-08-14T18:38:12.048Z,94758.06
2018-08-14T18:40:40.970Z,94758.44
2018-08-14T18:43:10.893Z,94762.06
2018-08-14T18:45:39.951Z,94771.53
2018-08-14T18:48:09.749Z,94764.70
2018-08-14T18:50:38.972Z,94769.56
2018-08-14T18:53:08.186Z,94762.07
2018-08-14T18:55:37.971Z,94772.00
2018-08-14T18:58:07.971Z,94770.59
2018-08-14T19:00:37.503Z,94769.36
2018-08-14T19:03:06.907Z,94768.16
2018-08-14T19:05:36.154Z,94770.30
2018-08-14T19:08:05.222Z,94768.42
2018-08-14T19:10:34.368Z,94766.08
2018-08-14T19:13:03.696Z,94769.00
2018-08-14T19:15:37.566Z,94767.56
2018-08-14T19:18:08.157Z,94771.84
2018-08-14T19:20:37.276Z,94768.91
2018-08-14T19:23:06.393Z,94765.17
2018-08-14T19:25:35.555Z,94768.16
2018-08-14T19:28:04.532Z,94770.68
2018-08-14T19:30:33.386Z,94772.98
2018-08-14T19:33:02.744Z,94780.35
2018-08-14T19:35:31.791Z,94776.41
2018-08-14T19:38:00.917Z,94785.38
2018-08-14T19:40:30.495Z,94780.97
2018-08-14T19:42:59.765Z,94789.91
2018-08-14T19:45:28.764Z,94792.53
2018-08-14T19:47:58.251Z,94782.51
2018-08-14T19:50:27.404Z,94775.61
2018-08-14T19:52:56.495Z,94769.36
2018-08-14T19:55:26.267Z,94776.02
2018-08-14T19:57:56.172Z,94770.10
2018-08-14T20:00:27.298Z,94769.62
2018-08-14T20:02:56.995Z,94775.28
2018-08-14T20:05:26.608Z,94784.21
2018-08-14T20:07:56.844Z,94782.52
2018-08-14T20:10:25.969Z,94774.55
2018-08-14T20:12:55.439Z,94777.52
2018-08-14T20:15:29.816Z,94782.54
2018-08-14T20:17:58.673Z,94781.49
2018-08-14T20:20:27.604Z,94781.63
2018-08-14T20:22:56.858Z,94787.00
2018-08-14T20:25:25.845Z,94798.86
2018-08-14T20:27:55.135Z,94792.59
2018-08-14T20:30:24.512Z,94796.49
2018-08-14T20:32:53.710Z,94791.46
2018-08-14T20:35:23.067Z,94785.19
2018-08-14T20:37:52.659Z,94794.84
2018-08-14T20:40:23.217Z,94792.34
2018-08-14T20:42:53.433Z,94798.22
2018-08-14T20:45:22.304Z,94802.76
2018-08-14T20:47:51.215Z,94799.67
2018-08-14T20:50:21.084Z,94802.47
2018-08-14T20:52:50.019Z,94795.33
2018-08-14T20:55:20.915Z,94794.58
2018-08-14T20:57:50.075Z,94798.55
2018-08-14T21:00:21.854Z,94799.94
2018-08-14T21:02:51.883Z,94800.73
2018-08-14T21:05:21.835Z,94801.56
2018-08-14T21:07:50.883Z,94811.80
2018-08-14T21:10:20.463Z,94812.33
2018-08-14T21:12:49.951Z,94806.74
2018-08-14T21:15:24.743Z,94802.89
2018-08-14T21:17:54.598Z,94810.86
2018-08-14T21:20:23.512Z,94808.92
2018-08-14T21:22:52.478Z,94811.08
2018-08-14T21:25:22.087Z,94807.08
2018-08-14T21:27:50.863Z,94809.80
2018-08-14T21:30:20.119Z,94809.23
2018-08-14T21:32:49.266Z,94813.88
2018-08-14T21:35:18.873Z,94807.34
2018-08-14T21:37:48.367Z,94810.77
2018-08-14T21:40:19.111Z,94814.66
2018-08-14T21:42:50.190Z,94806.16
2018-08-14T21:45:21.101Z,94810.86
2018-08-14T21:47:50.756Z,94807.98
2018-08-14T21:50:19.815Z,94815.61
2018-08-14T21:52:48.878Z,94807.64
2018-08-14T21:55:18.159Z,94812.17
2018-08-14T21:57:47.258Z,94811.53
2018-08-14T22:00:23.268Z,94810.13
2018-08-14T22:02:52.884Z,94813.57
2018-08-14T22:05:22.039Z,94808.84
2018-08-14T22:07:51.646Z,94809.19
2018-08-14T22:10:21.844Z,94813.13
2018-08-14T22:12:51.009Z,94813.82
2018-08-14T22:15:19.883Z,94815.19
2018-08-14T22:17:49.512Z,94808.98
2018-08-14T22:20:18.780Z,94812.84
2018-08-14T22:22:48.007Z,94809.31
2018-08-14T22:25:17.145Z,94807.05
2018-08-14T22:27:46.284Z,94807.48
2018-08-14T22:30:15.843Z,94811.58
2018-08-14T22:32:45.522Z,94825.86
2018-08-14T22:35:15.171Z,94823.59
2018-08-14T22:37:44.234Z,94806.88
2018-08-14T22:40:13.500Z,94808.19
2018-08-14T22:42:42.699Z,94801.52
2018-08-14T22:45:12.089Z,94803.13
2018-08-14T22:47:41.643Z,94806.36
2018-08-14T22:50:10.962Z,94808.60
2018-08-14T22:52:40.454Z,94808.48
2018-08-14T22:55:10.860Z,94812.59
2018-08-14T22:57:40.740Z,94813.23
2018-08-14T23:00:13.273Z,94819.66
2018-08-14T23:02:42.788Z,94812.79
2018-08-14T23:05:12.207Z,94809.36
2018-08-14T23:07:41.507Z,94807.44
2018-08-14T23:10:11.180Z,94808.73
2018-08-14T23:12:41.087Z,94807.23
2018-08-14T23:15:11.214Z,94805.84
2018-08-14T23:17:40.630Z,94804.30
2018-08-14T23:20:11.658Z,94803.23
2018-08-14T23:22:41.151Z,94802.50
2018-08-14T23:25:10.925Z,94799.91
2018-08-14T23:27:40.090Z,94790.44
2018-08-14T23:30:12.375Z,94812.24
2018-08-14T23:32:41.458Z,94799.14
2018-08-14T23:35:10.582Z,94819.31
2018-08-14T23:37:40.290Z,94802.02
2018-08-14T23:40:11.124Z,94804.70
2018-08-14T23:42:41.015Z,94797.83
2018-08-14T23:45:10.598Z,94796.89
2018-08-14T23:47:39.624Z,94800.22
2018-08-14T23:50:10.793Z,94797.56
2018-08-14T23:52:40.262Z,94794.56
2018-08-14T23:55:10.544Z,94788.98
2018-08-14T23:57:39.610Z,94792.64
